Time;durP1;ratioP1;P1;durP2;ratioP2;P2;SDS_P1;SDS_P2;PMS_P1;PMS_P2;Temp;Humidity;BMP_temperature;BMP_pressure;BME280_temperature;BME280_humidity;BME280_pressure;Samples;Min_cycle;Max_cycle;Signal;HPM_P1;HPM_P2
2021/07/23 00:01:37;;;;;;;3.33;2.97;;;18.30;99.90;;;;;;5000222;28;20469;-68
2021/07/23 00:04:03;;;;;;;4.00;3.47;;;18.30;99.90;;;;;;5025013;28;20454;-68
2021/07/23 00:06:29;;;;;;;3.42;3.13;;;18.30;99.90;;;;;;5004382;28;20874;-68
2021/07/23 00:08:54;;;;;;;3.47;3.17;;;18.30;99.90;;;;;;5035937;28;20394;-68
2021/07/23 00:11:20;;;;;;;3.27;2.97;;;18.30;99.90;;;;;;5027683;28;20402;-67
2021/07/23 00:13:47;;;;;;;3.75;3.45;;;18.30;99.90;;;;;;5025708;28;20853;-69
2021/07/23 00:16:13;;;;;;;5.07;3.78;;;18.30;99.90;;;;;;5008621;28;20421;-67
2021/07/23 00:18:39;;;;;;;3.42;3.13;;;18.20;99.90;;;;;;5000912;28;20814;-68
2021/07/23 00:21:04;;;;;;;2.90;2.70;;;18.20;99.90;;;;;;5007470;28;20390;-67
2021/07/23 00:23:30;;;;;;;3.15;2.92;;;18.10;99.90;;;;;;5011543;28;20832;-67
2021/07/23 00:25:56;;;;;;;3.17;2.90;;;18.10;99.90;;;;;;5006066;28;21093;-67
2021/07/23 00:28:21;;;;;;;3.50;2.92;;;18.10;99.90;;;;;;5005336;28;20472;-67
2021/07/23 00:30:48;;;;;;;2.90;2.70;;;18.10;99.90;;;;;;5006937;28;20447;-67
2021/07/23 00:33:14;;;;;;;3.50;3.20;;;18.10;99.90;;;;;;5016347;28;20432;-69
2021/07/23 00:35:40;;;;;;;3.35;3.05;;;18.10;99.90;;;;;;5003968;28;20457;-67
2021/07/23 00:38:06;;;;;;;4.35;3.33;;;18.10;99.90;;;;;;4990366;28;20408;-67
2021/07/23 00:40:35;;;;;;;3.22;2.92;;;18.10;99.90;;;;;;4985787;28;20440;-67
2021/07/23 00:43:02;;;;;;;3.00;2.70;;;18.00;99.90;;;;;;5011572;28;20481;-67
2021/07/23 00:45:28;;;;;;;3.30;3.00;;;18.00;99.90;;;;;;5021695;28;20527;-67
2021/07/23 00:47:55;;;;;;;2.85;2.65;;;18.00;99.90;;;;;;5001433;28;20405;-68
2021/07/23 00:50:22;;;;;;;3.17;2.97;;;18.00;99.90;;;;;;5003358;28;20967;-66
2021/07/23 00:52:49;;;;;;;2.97;2.72;;;18.00;99.90;;;;;;5009351;28;20402;-67
2021/07/23 00:55:15;;;;;;;4.07;3.20;;;17.90;99.90;;;;;;5010161;28;20439;-68
2021/07/23 00:57:42;;;;;;;4.50;3.92;;;17.90;99.90;;;;;;5010937;28;20396;-66
2021/07/23 01:00:08;;;;;;;3.33;3.03;;;17.80;99.90;;;;;;5028271;28;20952;-67
2021/07/23 01:02:47;;;;;;;4.03;3.72;;;17.80;99.90;;;;;;5032323;28;20391;-67
2021/07/23 01:05:13;;;;;;;3.53;3.22;;;17.70;99.90;;;;;;5026213;28;20425;-67
2021/07/23 01:07:39;;;;;;;4.00;3.30;;;17.60;99.90;;;;;;4992341;28;20837;-66
2021/07/23 01:10:06;;;;;;;2.90;2.70;;;17.60;99.90;;;;;;4988519;28;20406;-67
2021/07/23 01:12:50;;;;;;;4.25;3.78;;;17.60;99.90;;;;;;5005362;28;20405;-67
2021/07/23 01:15:16;;;;;;;3.63;3.33;;;17.60;99.90;;;;;;5013183;28;20454;-67
2021/07/23 01:17:41;;;;;;;5.03;3.45;;;17.50;99.90;;;;;;5006439;28;20403;-67
2021/07/23 01:20:14;;;;;;;3.70;3.38;;;17.50;99.90;;;;;;5001016;28;20419;-67
2021/07/23 01:22:41;;;;;;;3.80;3.50;;;17.40;99.90;;;;;;4987976;28;20463;-67
2021/07/23 01:25:10;;;;;;;3.53;3.22;;;17.50;99.90;;;;;;4984500;28;20511;-67
2021/07/23 01:27:43;;;;;;;4.47;4.07;;;17.50;99.90;;;;;;4977296;28;20405;-67
2021/07/23 01:30:24;;;;;;;6.78;3.95;;;17.40;99.90;;;;;;4994797;28;20401;-67
2021/07/23 01:32:58;;;;;;;2.92;2.72;;;17.40;99.90;;;;;;5022763;28;20407;-67
2021/07/23 01:35:24;;;;;;;3.20;2.90;;;17.30;99.90;;;;;;4986107;28;20513;-67
2021/07/23 01:37:50;;;;;;;3.35;3.05;;;17.30;99.90;;;;;;5021230;28;21151;-68
2021/07/23 01:40:20;;;;;;;3.40;3.10;;;17.30;99.90;;;;;;5027128;28;20401;-66
2021/07/23 01:42:46;;;;;;;5.00;4.43;;;17.30;99.90;;;;;;5007911;28;20931;-66
2021/07/23 01:45:13;;;;;;;3.50;2.95;;;17.30;99.90;;;;;;5005434;28;20841;-66
2021/07/23 01:47:39;;;;;;;4.35;3.70;;;17.30;99.90;;;;;;4995870;28;20389;-67
2021/07/23 01:50:06;;;;;;;3.83;3.53;;;17.30;99.90;;;;;;5018336;28;20915;-67
2021/07/23 01:52:33;;;;;;;4.00;3.60;;;17.30;99.90;;;;;;5024504;28;20420;-67
2021/07/23 01:55:04;;;;;;;3.97;3.67;;;17.20;99.90;;;;;;5018018;28;20395;-66
2021/07/23 01:57:41;;;;;;;3.30;3.00;;;17.20;99.90;;;;;;4973079;28;20400;-66
2021/07/23 02:00:07;;;;;;;3.70;3.40;;;17.20;99.90;;;;;;5013862;28;20403;-65
2021/07/23 02:02:41;;;;;;;6.82;3.65;;;17.20;99.90;;;;;;5023095;28;20407;-66
2021/07/23 02:05:08;;;;;;;3.50;3.20;;;17.20;99.90;;;;;;5016975;28;20389;-68
2021/07/23 02:07:34;;;;;;;3.10;2.80;;;17.10;99.90;;;;;;5020538;28;20611;-67
2021/07/23 02:10:01;;;;;;;3.55;3.25;;;17.20;99.90;;;;;;5041161;28;20391;-67
2021/07/23 02:12:27;;;;;;;2.95;2.75;;;17.20;99.90;;;;;;5011710;28;20486;-68
2021/07/23 02:15:19;;;;;;;3.20;2.88;;;17.30;99.90;;;;;;5028652;28;20976;-67
2021/07/23 02:17:47;;;;;;;4.15;3.67;;;17.40;99.90;;;;;;5015480;28;20937;-68
2021/07/23 02:20:18;;;;;;;3.13;2.83;;;17.30;99.90;;;;;;5002836;28;20416;-67
2021/07/23 02:22:44;;;;;;;4.85;4.45;;;17.40;99.90;;;;;;4964734;28;20443;-67
2021/07/23 02:25:15;;;;;;;3.40;3.10;;;17.40;99.90;;;;;;4982350;28;20402;-67
2021/07/23 02:27:42;;;;;;;4.28;3.83;;;17.30;99.90;;;;;;5007943;28;20429;-69
2021/07/23 02:30:08;;;;;;;4.57;4.10;;;17.20;99.90;;;;;;4994232;28;20422;-67
2021/07/23 02:32:39;;;;;;;3.35;3.05;;;17.20;99.90;;;;;;5018148;28;21001;-67
2021/07/23 02:35:06;;;;;;;3.10;2.90;;;17.20;99.90;;;;;;5035602;28;20391;-67
2021/07/23 02:37:47;;;;;;;3.90;3.50;;;17.20;99.90;;;;;;4996875;28;20530;-66
2021/07/23 02:40:13;;;;;;;4.05;3.60;;;17.20;99.90;;;;;;5036441;28;20413;-66
2021/07/23 02:42:39;;;;;;;3.20;2.95;;;17.20;99.90;;;;;;5020234;28;20730;-67
2021/07/23 02:45:05;;;;;;;3.15;2.95;;;17.20;99.90;;;;;;5019035;28;20401;-67
2021/07/23 02:47:32;;;;;;;6.40;4.60;;;17.20;99.90;;;;;;5036611;28;20391;-68
2021/07/23 02:49:58;;;;;;;3.72;3.42;;;17.30;99.90;;;;;;4988962;28;20453;-66
2021/07/23 02:52:26;;;;;;;3.05;2.85;;;17.30;99.90;;;;;;5028372;28;20468;-67
2021/07/23 02:54:52;;;;;;;4.32;3.92;;;17.30;99.90;;;;;;5014579;28;20405;-67
2021/07/23 02:57:17;;;;;;;4.60;4.20;;;17.30;99.90;;;;;;5014388;28;20392;-67
2021/07/23 02:59:45;;;;;;;4.22;3.55;;;17.30;99.90;;;;;;4992041;28;20419;-68
2021/07/23 03:02:12;;;;;;;3.45;3.15;;;17.20;99.90;;;;;;5015143;28;20403;-67
2021/07/23 03:04:40;;;;;;;3.50;3.20;;;17.30;99.90;;;;;;5044977;28;20403;-68
2021/07/23 03:07:05;;;;;;;4.53;3.40;;;17.20;99.90;;;;;;5012426;28;20735;-68
2021/07/23 03:09:33;;;;;;;3.50;3.20;;;17.20;99.90;;;;;;5035493;28;20460;-67
2021/07/23 03:12:01;;;;;;;4.85;3.17;;;17.20;99.90;;;;;;5024839;28;20397;-67
2021/07/23 03:14:31;;;;;;;4.00;3.60;;;17.30;99.90;;;;;;5028606;28;20407;-67
2021/07/23 03:17:08;;;;;;;4.00;3.60;;;17.40;99.90;;;;;;5010286;28;20397;-67
2021/07/23 03:19:35;;;;;;;3.30;3.00;;;17.40;99.90;;;;;;5027341;28;20415;-67
2021/07/23 03:22:02;;;;;;;3.42;3.10;;;17.30;99.90;;;;;;5036894;28;20425;-67
2021/07/23 03:24:28;;;;;;;3.85;3.08;;;17.30;99.90;;;;;;5046348;28;21296;-66
2021/07/23 03:26:57;;;;;;;3.45;2.95;;;17.30;99.90;;;;;;5039471;28;20399;-67
2021/07/23 03:29:23;;;;;;;3.40;3.10;;;17.40;99.90;;;;;;5021094;28;20400;-67
2021/07/23 03:31:49;;;;;;;4.07;3.63;;;17.40;99.90;;;;;;5016925;28;20431;-67
2021/07/23 03:34:19;;;;;;;5.00;4.20;;;17.50;99.90;;;;;;5003767;28;20395;-67
2021/07/23 03:37:14;;;;;;;4.82;3.80;;;17.40;99.90;;;;;;5005944;28;20408;-66
2021/07/23 03:39:51;;;;;;;4.30;3.25;;;17.30;99.90;;;;;;4996663;28;20403;-66
2021/07/23 03:42:21;;;;;;;4.68;4.28;;;17.20;99.90;;;;;;5024917;28;20414;-67
2021/07/23 03:45:10;;;;;;;4.25;3.83;;;17.20;99.90;;;;;;5047109;28;20426;-67
2021/07/23 03:47:36;;;;;;;4.85;4.35;;;17.20;99.90;;;;;;5015064;28;20468;-67
2021/07/23 03:50:02;;;;;;;3.80;3.50;;;17.20;99.90;;;;;;5017602;28;20726;-66
2021/07/23 03:52:32;;;;;;;4.32;3.78;;;17.30;99.90;;;;;;5009553;28;20424;-66
2021/07/23 03:55:27;;;;;;;4.90;3.88;;;17.20;99.90;;;;;;5001682;28;20442;-67
2021/07/23 03:57:53;;;;;;;5.32;4.22;;;17.30;99.90;;;;;;5019935;28;20818;-67
2021/07/23 04:00:19;;;;;;;3.58;3.28;;;17.30;99.90;;;;;;5022855;28;20415;-67
2021/07/23 04:02:50;;;;;;;4.45;4.05;;;17.40;99.90;;;;;;5002275;28;21023;-66
2021/07/23 04:05:16;;;;;;;4.90;3.87;;;17.50;99.90;;;;;;5005203;28;20404;-67
2021/07/23 04:07:43;;;;;;;4.55;4.15;;;17.50;99.90;;;;;;4983602;28;20425;-67
2021/07/23 04:10:10;;;;;;;5.63;5.03;;;17.60;99.90;;;;;;5012102;28;20407;-67
2021/07/23 04:12:36;;;;;;;5.65;3.90;;;17.60;99.90;;;;;;4998765;28;20403;-66
2021/07/23 04:15:06;;;;;;;4.87;4.37;;;17.50;99.90;;;;;;5021235;28;20394;-66
2021/07/23 04:17:33;;;;;;;7.07;5.32;;;17.40;99.90;;;;;;5019050;28;20406;-67
2021/07/23 04:19:59;;;;;;;6.43;5.65;;;17.40;99.90;;;;;;5009710;28;20439;-67
2021/07/23 04:22:26;;;;;;;5.63;4.88;;;17.30;99.90;;;;;;4993464;28;20452;-67
2021/07/23 04:25:03;;;;;;;6.30;5.70;;;17.30;99.90;;;;;;4992409;28;20396;-66
2021/07/23 04:27:29;;;;;;;6.78;6.07;;;17.20;99.90;;;;;;5010465;28;20404;-67
2021/07/23 04:30:09;;;;;;;5.20;4.15;;;17.20;99.90;;;;;;5007316;28;20796;-67
2021/07/23 04:32:54;;;;;;;5.15;4.65;;;17.20;99.90;;;;;;5045687;28;20409;-67
2021/07/23 04:35:20;;;;;;;5.33;4.83;;;17.20;99.90;;;;;;4991032;28;20445;-68
2021/07/23 04:37:47;;;;;;;4.75;4.35;;;17.30;99.90;;;;;;4989110;28;20410;-67
2021/07/23 04:40:36;;;;;;;5.80;4.80;;;17.40;99.90;;;;;;5004637;28;20403;-67
2021/07/23 04:43:03;;;;;;;7.00;4.68;;;17.60;99.90;;;;;;5020431;28;20385;-67
2021/07/23 04:45:29;;;;;;;4.97;4.47;;;17.60;99.90;;;;;;5019144;28;20404;-68
2021/07/23 04:48:04;;;;;;;6.57;5.17;;;17.60;99.90;;;;;;5022598;28;20407;-67
2021/07/23 04:50:44;;;;;;;5.60;5.05;;;17.70;99.90;;;;;;5008221;28;20962;-67
2021/07/23 04:53:29;;;;;;;5.65;5.03;;;17.80;99.90;;;;;;5005007;28;20816;-67
2021/07/23 04:56:15;;;;;;;6.25;5.32;;;17.80;99.90;;;;;;4999278;28;20959;-67
2021/07/23 04:58:41;;;;;;;5.60;5.07;;;17.80;99.90;;;;;;5011431;28;27173;-68
2021/07/23 05:01:07;;;;;;;6.07;5.03;;;17.80;99.90;;;;;;5004646;28;20436;-68
2021/07/23 05:03:36;;;;;;;5.72;5.22;;;17.90;99.90;;;;;;5006077;28;20484;-67
2021/07/23 05:06:03;;;;;;;6.30;5.70;;;17.90;99.90;;;;;;5005989;28;20428;-67
2021/07/23 05:08:29;;;;;;;6.03;4.73;;;17.90;99.90;;;;;;4999689;28;20397;-67
2021/07/23 05:10:55;;;;;;;5.60;4.85;;;17.90;99.90;;;;;;5007553;28;20381;-68
2021/07/23 05:13:21;;;;;;;6.35;5.47;;;17.90;99.90;;;;;;4985725;28;20507;-68
2021/07/23 05:15:47;;;;;;;5.30;4.82;;;18.00;99.90;;;;;;4997464;28;20479;-68
2021/07/23 05:18:13;;;;;;;5.97;5.47;;;18.00;99.90;;;;;;5020655;28;20537;-68
2021/07/23 05:20:38;;;;;;;5.93;5.10;;;18.10;99.90;;;;;;5004302;28;20465;-67
2021/07/23 05:23:04;;;;;;;5.07;4.60;;;18.10;99.90;;;;;;5001686;28;20394;-68
2021/07/23 05:25:33;;;;;;;4.90;4.50;;;18.20;99.90;;;;;;5021855;28;20397;-68
2021/07/23 05:27:59;;;;;;;5.32;4.65;;;18.30;99.90;;;;;;4996708;28;20465;-68
2021/07/23 05:30:25;;;;;;;5.05;4.55;;;18.40;99.90;;;;;;4985579;28;20403;-67
2021/07/23 05:32:51;;;;;;;5.07;4.57;;;18.40;99.90;;;;;;5008307;28;20399;-68
2021/07/23 05:35:16;;;;;;;5.68;5.18;;;18.50;99.90;;;;;;5009997;28;20424;-68
2021/07/23 05:37:42;;;;;;;5.13;4.63;;;18.60;99.90;;;;;;5004822;28;20410;-68
2021/07/23 05:40:09;;;;;;;4.67;4.23;;;18.70;99.90;;;;;;5015764;28;20439;-68
2021/07/23 05:42:35;;;;;;;4.68;4.28;;;18.70;99.90;;;;;;5031668;28;20917;-69
2021/07/23 05:45:00;;;;;;;5.50;4.90;;;18.80;99.90;;;;;;5019010;28;20399;-69
2021/07/23 05:47:27;;;;;;;4.82;4.35;;;18.90;99.90;;;;;;5030231;28;20399;-69
2021/07/23 05:49:53;;;;;;;5.13;4.63;;;19.00;99.90;;;;;;5018992;28;20468;-69
2021/07/23 05:52:18;;;;;;;4.93;4.47;;;19.10;99.90;;;;;;4995629;28;20601;-68
2021/07/23 05:54:44;;;;;;;6.03;5.18;;;19.10;99.90;;;;;;5029714;28;20409;-68
2021/07/23 05:57:10;;;;;;;5.83;5.23;;;19.20;99.90;;;;;;4998304;28;20408;-69
2021/07/23 05:59:35;;;;;;;5.47;4.90;;;19.30;99.90;;;;;;5021705;28;20444;-68
2021/07/23 06:02:01;;;;;;;5.35;4.90;;;19.40;99.90;;;;;;5013729;28;20402;-68
2021/07/23 06:04:27;;;;;;;6.33;5.73;;;19.50;99.90;;;;;;5001776;28;20399;-68
2021/07/23 06:06:52;;;;;;;7.40;4.70;;;19.60;99.90;;;;;;5029552;28;20400;-68
2021/07/23 06:09:18;;;;;;;7.97;4.88;;;19.60;99.90;;;;;;5005188;28;20400;-69
2021/07/23 06:11:43;;;;;;;5.43;4.93;;;19.70;99.90;;;;;;4997951;28;20734;-68
2021/07/23 06:14:09;;;;;;;5.30;4.82;;;19.80;99.90;;;;;;4998378;28;20408;-69
2021/07/23 06:16:35;;;;;;;5.63;5.13;;;19.90;99.90;;;;;;5038159;28;20401;-69
2021/07/23 06:19:01;;;;;;;9.50;5.93;;;20.00;99.90;;;;;;5019671;28;20393;-69
2021/07/23 06:21:26;;;;;;;5.60;4.90;;;20.00;99.90;;;;;;5001313;28;20401;-69
2021/07/23 06:23:52;;;;;;;7.22;5.50;;;20.10;99.90;;;;;;4995060;28;20463;-68
2021/07/23 06:26:18;;;;;;;5.60;4.78;;;20.20;99.90;;;;;;5021223;28;20411;-69
2021/07/23 06:28:44;;;;;;;5.77;4.97;;;20.40;99.90;;;;;;5033918;28;20395;-69
2021/07/23 06:31:11;;;;;;;6.68;5.70;;;20.50;99.90;;;;;;5009624;28;20554;-68
2021/07/23 06:33:37;;;;;;;7.38;5.78;;;20.60;99.90;;;;;;4991614;28;21237;-69
2021/07/23 06:36:03;;;;;;;5.75;5.00;;;20.60;99.90;;;;;;4971330;28;20402;-69
2021/07/23 06:38:28;;;;;;;5.88;5.35;;;20.70;99.90;;;;;;5035633;28;20761;-69
2021/07/23 06:40:54;;;;;;;5.95;5.38;;;20.80;99.90;;;;;;5012063;28;20412;-69
2021/07/23 06:43:20;;;;;;;5.45;4.95;;;20.90;99.90;;;;;;5000232;28;20396;-68
2021/07/23 06:45:52;;;;;;;7.13;5.60;;;20.90;99.90;;;;;;5018154;28;20477;-69
2021/07/23 06:48:18;;;;;;;5.70;5.03;;;21.00;99.90;;;;;;5015987;28;20416;-68
2021/07/23 06:50:44;;;;;;;6.20;5.43;;;21.00;99.90;;;;;;5016842;28;20488;-69
2021/07/23 06:53:10;;;;;;;6.47;5.80;;;21.00;99.90;;;;;;4995007;28;20834;-69
2021/07/23 06:55:35;;;;;;;6.23;5.07;;;21.00;99.90;;;;;;4987206;28;20420;-69
2021/07/23 06:58:01;;;;;;;6.32;5.72;;;21.20;99.90;;;;;;5032554;28;20409;-69
2021/07/23 07:00:27;;;;;;;6.20;5.60;;;21.30;99.90;;;;;;5018452;28;20412;-69
2021/07/23 07:02:53;;;;;;;6.35;5.63;;;21.40;99.90;;;;;;4971673;28;20406;-69
2021/07/23 07:05:19;;;;;;;6.27;5.67;;;21.40;99.90;;;;;;4973326;28;20420;-69
2021/07/23 07:07:44;;;;;;;6.68;5.95;;;21.40;99.90;;;;;;5011115;28;20528;-69
2021/07/23 07:10:10;;;;;;;7.30;6.17;;;21.40;99.90;;;;;;5032511;28;20410;-68
2021/07/23 07:12:36;;;;;;;6.30;5.70;;;21.50;99.90;;;;;;5010752;28;20498;-68
2021/07/23 07:15:02;;;;;;;8.32;5.22;;;21.60;99.90;;;;;;5035071;28;20416;-67
2021/07/23 07:17:29;;;;;;;6.33;5.43;;;21.70;99.90;;;;;;5022017;28;20440;-68
2021/07/23 07:19:57;;;;;;;6.15;5.55;;;21.80;99.90;;;;;;5003639;28;20422;-68
2021/07/23 07:22:26;;;;;;;7.68;5.68;;;21.80;99.90;;;;;;5026646;28;20453;-68
2021/07/23 07:24:52;;;;;;;8.30;6.25;;;22.00;99.90;;;;;;4993080;28;20454;-68
2021/07/23 07:27:18;;;;;;;6.33;5.40;;;22.10;99.90;;;;;;5016979;28;20423;-67
2021/07/23 07:29:44;;;;;;;6.07;5.22;;;22.30;99.90;;;;;;5009723;28;20422;-67
2021/07/23 07:32:09;;;;;;;6.13;5.30;;;22.30;99.90;;;;;;5045137;28;20397;-69
2021/07/23 07:34:36;;;;;;;6.05;5.45;;;22.50;99.90;;;;;;5024884;28;20972;-67
2021/07/23 07:37:03;;;;;;;5.57;4.97;;;22.60;99.90;;;;;;5004572;28;20421;-68
2021/07/23 07:39:29;;;;;;;6.00;5.40;;;22.60;99.90;;;;;;5005457;28;20428;-67
2021/07/23 07:41:55;;;;;;;5.15;4.63;;;22.70;99.90;;;;;;5017039;28;20400;-68
2021/07/23 07:44:21;;;;;;;6.10;5.40;;;22.90;99.90;;;;;;4990706;28;20494;-68
2021/07/23 07:46:46;;;;;;;5.97;5.38;;;23.00;99.90;;;;;;5000967;28;20481;-69
2021/07/23 07:49:12;;;;;;;5.20;4.70;;;23.20;99.90;;;;;;5014170;28;20398;-69
2021/07/23 07:51:38;;;;;;;7.15;5.40;;;23.30;99.90;;;;;;5022418;28;20401;-69
2021/07/23 07:54:03;;;;;;;5.40;4.90;;;23.40;99.90;;;;;;5002972;28;20441;-69
2021/07/23 07:56:29;;;;;;;5.83;5.33;;;23.50;99.90;;;;;;5010768;28;20414;-69
2021/07/23 07:58:55;;;;;;;7.35;5.90;;;23.30;99.90;;;;;;5011601;28;20401;-69
2021/07/23 08:01:20;;;;;;;6.72;5.57;;;23.30;99.90;;;;;;4994895;28;20431;-71
2021/07/23 08:03:47;;;;;;;5.27;4.77;;;23.30;99.90;;;;;;4983209;28;20409;-69
2021/07/23 08:06:23;;;;;;;5.55;5.00;;;23.50;99.90;;;;;;4988086;28;20391;-69
2021/07/23 08:08:51;;;;;;;5.47;4.95;;;23.70;99.90;;;;;;5035141;28;20907;-69
2021/07/23 08:11:17;;;;;;;6.18;4.90;;;23.80;99.90;;;;;;5004565;28;20406;-69
2021/07/23 08:13:43;;;;;;;5.50;5.00;;;23.90;99.90;;;;;;4994525;28;20406;-69
2021/07/23 08:16:09;;;;;;;8.85;5.10;;;24.20;99.90;;;;;;5049234;28;20385;-69
2021/07/23 08:18:35;;;;;;;6.82;4.82;;;24.60;99.90;;;;;;5020227;28;20773;-69
2021/07/23 08:21:02;;;;;;;5.32;4.82;;;25.00;99.90;;;;;;5026275;28;20409;-69
2021/07/23 08:23:28;;;;;;;6.65;5.55;;;25.10;99.90;;;;;;5031470;28;20469;-69
2021/07/23 08:25:54;;;;;;;6.60;5.07;;;25.10;99.90;;;;;;4999760;28;20500;-69
2021/07/23 08:28:19;;;;;;;5.22;3.83;;;25.20;99.90;;;;;;4987529;28;20418;-69
2021/07/23 08:30:45;;;;;;;4.55;4.15;;;25.40;99.90;;;;;;5009499;28;20489;-69
2021/07/23 08:33:11;;;;;;;7.53;4.97;;;25.50;99.90;;;;;;4984161;28;20413;-71
2021/07/23 08:35:38;;;;;;;5.95;4.07;;;25.70;99.90;;;;;;5013092;28;20941;-71
2021/07/23 08:38:04;;;;;;;4.60;4.20;;;25.80;99.90;;;;;;4994280;28;20833;-69
2021/07/23 08:40:29;;;;;;;4.95;4.45;;;26.00;99.90;;;;;;4990789;28;20502;-69
2021/07/23 08:42:55;;;;;;;4.95;4.45;;;25.70;99.90;;;;;;4999288;28;20399;-69
2021/07/23 08:45:21;;;;;;;4.87;4.40;;;25.80;99.90;;;;;;4997704;28;20436;-69
2021/07/23 08:47:47;;;;;;;10.13;4.30;;;26.10;99.90;;;;;;5030763;28;20406;-69
2021/07/23 08:50:12;;;;;;;6.78;4.45;;;26.00;99.90;;;;;;5041780;28;20559;-69
2021/07/23 08:52:45;;;;;;;8.00;4.50;;;26.20;99.90;;;;;;5024797;28;20816;-69
2021/07/23 08:55:15;;;;;;;4.07;3.70;;;26.30;99.90;;;;;;5020661;28;20456;-69
2021/07/23 08:57:41;;;;;;;7.78;4.25;;;26.40;99.90;;;;;;5009391;28;20476;-69
2021/07/23 09:00:08;;;;;;;4.18;3.75;;;26.60;99.90;;;;;;5014218;28;20429;-69
2021/07/23 09:03:12;;;;;;;7.05;4.30;;;26.80;99.90;;;;;;5005504;28;20423;-69
2021/07/23 09:05:39;;;;;;;4.82;4.22;;;26.70;99.90;;;;;;4985789;28;20415;-69
2021/07/23 09:08:11;;;;;;;4.38;3.97;;;26.90;99.90;;;;;;4996009;28;20443;-68
2021/07/23 09:10:38;;;;;;;5.45;4.43;;;27.40;99.90;;;;;;5006359;28;20495;-68
2021/07/23 09:13:13;;;;;;;5.15;4.18;;;27.90;99.90;;;;;;5006854;28;20410;-68
2021/07/23 09:15:47;;;;;;;4.60;4.20;;;27.90;99.90;;;;;;4969141;28;20411;-68
2021/07/23 09:18:31;;;;;;;4.30;3.70;;;28.20;99.90;;;;;;4991747;28;20473;-68
2021/07/23 09:20:58;;;;;;;4.25;3.35;;;28.20;99.90;;;;;;5003676;28;21154;-68
2021/07/23 09:23:30;;;;;;;4.32;3.92;;;28.50;99.90;;;;;;5034897;28;20433;-67
2021/07/23 09:25:57;;;;;;;4.28;3.88;;;28.60;99.90;;;;;;5002204;28;20404;-68
2021/07/23 09:28:33;;;;;;;4.27;3.87;;;29.10;99.90;;;;;;5021746;28;20415;-68
2021/07/23 09:31:03;;;;;;;4.07;3.63;;;29.20;99.90;;;;;;4998089;28;20427;-68
2021/07/23 09:33:33;;;;;;;4.13;3.13;;;29.20;99.90;;;;;;4997939;28;20408;-68
2021/07/23 09:36:04;;;;;;;5.22;4.10;;;29.30;99.90;;;;;;5006637;28;20411;-68
2021/07/23 09:38:34;;;;;;;3.80;3.40;;;29.60;99.90;;;;;;5009490;28;20421;-68
2021/07/23 09:41:00;;;;;;;4.00;3.70;;;29.90;99.90;;;;;;5015213;28;20464;-69
2021/07/23 09:43:37;;;;;;;3.33;3.03;;;30.10;99.90;;;;;;5005738;28;20408;-69
2021/07/23 09:46:26;;;;;;;3.38;3.08;;;30.10;99.90;;;;;;5014994;28;20392;-68
2021/07/23 09:48:53;;;;;;;3.38;3.08;;;30.10;99.90;;;;;;5013875;28;20482;-69
2021/07/23 09:51:20;;;;;;;4.25;3.85;;;30.20;99.90;;;;;;4995641;28;20455;-70
2021/07/23 09:53:46;;;;;;;3.95;3.55;;;29.80;98.80;;;;;;5022423;28;20410;-68
2021/07/23 09:56:11;;;;;;;3.60;3.20;;;30.10;99.90;;;;;;4991903;28;20498;-68
2021/07/23 09:58:42;;;;;;;3.70;3.40;;;30.40;99.90;;;;;;5038762;28;20419;-68
2021/07/23 10:01:14;;;;;;;4.05;3.65;;;30.70;97.60;;;;;;5023556;28;20453;-68
2021/07/23 10:03:44;;;;;;;4.95;3.80;;;30.50;96.50;;;;;;5008195;28;20478;-69
2021/07/23 10:06:16;;;;;;;3.60;3.30;;;30.50;98.60;;;;;;5014578;28;20401;-68
2021/07/23 10:08:52;;;;;;;3.50;3.20;;;30.50;96.50;;;;;;5019697;28;20409;-68
2021/07/23 10:11:20;;;;;;;3.92;3.58;;;30.20;99.60;;;;;;5004060;28;20477;-68
2021/07/23 10:13:47;;;;;;;3.47;3.17;;;30.60;96.20;;;;;;5006022;28;20403;-69
2021/07/23 10:16:12;;;;;;;3.47;3.13;;;30.60;94.40;;;;;;5022715;28;20448;-68
2021/07/23 10:18:39;;;;;;;3.00;2.80;;;30.60;94.90;;;;;;5023573;28;20927;-68
2021/07/23 10:21:05;;;;;;;3.92;3.10;;;30.80;95.90;;;;;;5024254;28;20414;-68
2021/07/23 10:23:31;;;;;;;3.53;3.22;;;31.00;96.80;;;;;;4999144;28;20902;-68
2021/07/23 10:25:57;;;;;;;3.10;2.80;;;30.80;94.60;;;;;;5023047;28;20455;-69
2021/07/23 10:28:42;;;;;;;3.20;2.90;;;30.50;92.30;;;;;;4996532;28;20419;-68
2021/07/23 10:31:17;;;;;;;3.65;3.35;;;30.20;93.10;;;;;;5024380;28;20457;-68
2021/07/23 10:33:49;;;;;;;3.35;3.10;;;29.90;92.00;;;;;;5028037;28;20407;-68
2021/07/23 10:36:27;;;;;;;5.20;3.17;;;29.90;93.00;;;;;;4980793;28;20406;-68
2021/07/23 10:39:04;;;;;;;3.67;3.28;;;29.80;90.20;;;;;;5020453;28;20446;-68
2021/07/23 10:41:40;;;;;;;3.30;3.10;;;29.60;92.00;;;;;;5024719;28;21158;-68
2021/07/23 10:44:10;;;;;;;3.13;2.90;;;29.50;93.90;;;;;;5026349;28;20398;-68
2021/07/23 10:46:47;;;;;;;3.13;2.83;;;29.50;94.40;;;;;;5026276;28;20408;-68
2021/07/23 10:49:28;;;;;;;3.08;2.88;;;29.70;92.70;;;;;;5006731;28;20408;-69
2021/07/23 10:51:59;;;;;;;4.03;2.93;;;29.70;92.30;;;;;;5018072;28;20495;-69
2021/07/23 10:54:34;;;;;;;3.15;2.85;;;29.80;92.40;;;;;;5028212;28;20401;-69
2021/07/23 10:57:04;;;;;;;3.28;2.97;;;29.80;92.40;;;;;;5000110;28;20405;-69
2021/07/23 10:59:39;;;;;;;3.88;3.55;;;29.50;91.90;;;;;;5017849;28;20452;-68
2021/07/23 11:02:05;;;;;;;3.53;3.22;;;29.30;92.20;;;;;;5010368;28;20403;-69
2021/07/23 11:04:32;;;;;;;9.02;3.30;;;29.00;92.80;;;;;;5011151;28;20398;-69
2021/07/23 11:07:01;;;;;;;3.75;3.40;;;29.30;93.10;;;;;;4998947;28;20484;-70
2021/07/23 11:09:31;;;;;;;3.27;3.07;;;29.90;90.30;;;;;;5010452;28;20389;-70
2021/07/23 11:12:15;;;;;;;3.47;3.17;;;30.10;93.10;;;;;;4970951;28;20410;-70
2021/07/23 11:14:41;;;;;;;4.20;3.73;;;30.70;92.30;;;;;;5035089;28;20387;-70
2021/07/23 11:17:08;;;;;;;3.78;3.47;;;31.20;93.10;;;;;;5013774;28;20403;-71
2021/07/23 11:19:34;;;;;;;5.00;3.40;;;31.40;90.60;;;;;;5002503;28;20398;-71
2021/07/23 11:22:00;;;;;;;3.72;3.42;;;31.60;92.20;;;;;;4992671;28;20407;-70
2021/07/23 11:24:34;;;;;;;3.80;3.50;;;31.70;91.80;;;;;;5020628;28;20441;-70
2021/07/23 11:26:59;;;;;;;3.50;3.20;;;32.20;90.50;;;;;;5011048;28;20440;-70
2021/07/23 11:29:30;;;;;;;3.50;3.20;;;32.00;92.70;;;;;;4987199;28;20821;-70
2021/07/23 11:32:08;;;;;;;4.38;3.33;;;32.30;90.30;;;;;;5011420;28;20408;-70
2021/07/23 11:34:39;;;;;;;3.25;2.95;;;32.90;86.90;;;;;;5018445;28;20440;-70
2021/07/23 11:37:20;;;;;;;3.55;3.25;;;33.00;81.50;;;;;;5019772;28;20835;-70
2021/07/23 11:39:59;;;;;;;4.10;3.30;;;33.40;83.20;;;;;;5005942;28;20906;-70
2021/07/23 11:42:26;;;;;;;3.38;3.08;;;33.40;83.00;;;;;;5004262;28;20835;-71
2021/07/23 11:44:53;;;;;;;3.50;3.20;;;33.70;83.50;;;;;;5006928;28;20454;-70
2021/07/23 11:47:29;;;;;;;2.92;2.72;;;33.30;74.00;;;;;;4993526;28;20470;-71
2021/07/23 11:49:56;;;;;;;3.23;2.93;;;33.40;76.40;;;;;;5024712;28;20447;-71
2021/07/23 11:52:22;;;;;;;3.60;3.20;;;33.70;84.00;;;;;;5009776;28;20408;-71
2021/07/23 11:54:55;;;;;;;3.28;2.97;;;33.80;74.10;;;;;;5014081;28;20399;-70
2021/07/23 11:57:21;;;;;;;3.35;3.05;;;34.10;75.20;;;;;;5014970;28;20437;-71
2021/07/23 11:59:47;;;;;;;3.22;2.92;;;34.40;78.60;;;;;;5011539;28;20406;-71
2021/07/23 12:02:14;;;;;;;3.15;2.83;;;34.80;79.20;;;;;;5026541;28;20396;-71
2021/07/23 12:04:41;;;;;;;4.30;2.92;;;34.90;69.00;;;;;;4988198;28;20403;-71
2021/07/23 12:07:08;;;;;;;4.30;3.00;;;35.00;68.20;;;;;;5018442;28;20446;-71
2021/07/23 12:09:34;;;;;;;3.00;2.70;;;35.40;72.10;;;;;;5041179;28;20403;-71
2021/07/23 12:11:59;;;;;;;2.80;2.60;;;35.30;69.10;;;;;;5023623;28;20385;-70
2021/07/23 12:14:25;;;;;;;2.88;2.60;;;35.60;66.70;;;;;;5003067;28;20393;-69
2021/07/23 12:16:52;;;;;;;3.10;2.80;;;35.60;67.00;;;;;;5027887;28;20393;-69
2021/07/23 12:19:18;;;;;;;3.10;2.80;;;35.90;62.30;;;;;;4990412;28;20898;-69
2021/07/23 12:21:44;;;;;;;2.60;2.40;;;35.60;63.50;;;;;;5012160;28;20403;-69
2021/07/23 12:24:10;;;;;;;2.85;2.65;;;35.30;63.70;;;;;;4996986;28;20402;-69
2021/07/23 12:26:40;;;;;;;2.53;2.33;;;35.20;66.50;;;;;;4987433;28;20395;-69
2021/07/23 12:29:07;;;;;;;2.40;2.20;;;35.60;66.90;;;;;;5019267;28;20430;-69
2021/07/23 12:31:33;;;;;;;2.00;1.80;;;35.40;62.60;;;;;;5009364;28;20474;-69
2021/07/23 12:34:18;;;;;;;2.67;2.47;;;34.80;60.50;;;;;;4990800;28;20971;-68
2021/07/23 12:36:47;;;;;;;2.55;2.35;;;34.50;60.20;;;;;;4990294;28;20443;-69
2021/07/23 12:39:14;;;;;;;2.90;2.70;;;34.70;67.70;;;;;;5007795;28;20490;-69
2021/07/23 12:41:40;;;;;;;2.78;2.58;;;34.90;57.60;;;;;;5024871;28;20853;-69
2021/07/23 12:44:13;;;;;;;2.40;2.20;;;34.70;57.40;;;;;;4996666;28;20776;-70
2021/07/23 12:46:40;;;;;;;2.97;2.75;;;34.70;61.50;;;;;;5019466;28;20439;-69
2021/07/23 12:49:08;;;;;;;3.85;2.47;;;34.70;57.70;;;;;;5004351;28;20404;-69
2021/07/23 12:51:34;;;;;;;3.03;2.70;;;35.00;61.90;;;;;;5020761;28;20453;-69
2021/07/23 12:53:59;;;;;;;2.60;2.40;;;34.80;58.20;;;;;;5009840;28;20389;-70
2021/07/23 12:56:31;;;;;;;2.70;2.47;;;34.70;54.20;;;;;;4996083;28;20496;-69